sensor_id;sensor_type;location;lat;lon;timestamp;P1;durP1;ratioP1;P2;durP2;ratioP2
13720;SDS011;6932;51.438;5.470;2022-08-24T00:01:11;9.33;;;7.40;;
13720;SDS011;6932;51.438;5.470;2022-08-24T00:03:40;10.63;;;7.33;;
13720;SDS011;6932;51.438;5.470;2022-08-24T00:06:10;10.23;;;7.70;;
13720;SDS011;6932;51.438;5.470;2022-08-24T00:08:39;11.40;;;8.53;;
13720;SDS011;6932;51.438;5.470;2022-08-24T00:11:06;12.03;;;8.77;;
13720;SDS011;6932;51.438;5.470;2022-08-24T00:13:32;10.70;;;8.47;;
13720;SDS011;6932;51.438;5.470;2022-08-24T00:15:59;11.63;;;9.13;;
13720;SDS011;6932;51.438;5.470;2022-08-24T00:18:26;11.07;;;8.60;;
13720;SDS011;6932;51.438;5.470;2022-08-24T00:20:52;11.70;;;9.40;;
13720;SDS011;6932;51.438;5.470;2022-08-24T00:23:18;10.83;;;8.53;;
13720;SDS011;6932;51.438;5.470;2022-08-24T00:25:44;11.47;;;8.67;;
13720;SDS011;6932;51.438;5.470;2022-08-24T00:28:10;12.90;;;10.07;;
13720;SDS011;6932;51.438;5.470;2022-08-24T00:30:36;11.87;;;9.03;;
13720;SDS011;6932;51.438;5.470;2022-08-24T00:33:02;12.47;;;9.33;;
13720;SDS011;6932;51.438;5.470;2022-08-24T00:35:28;12.00;;;10.30;;
13720;SDS011;6932;51.438;5.470;2022-08-24T00:37:55;13.03;;;9.87;;
13720;SDS011;6932;51.438;5.470;2022-08-24T00:40:33;14.67;;;10.10;;
13720;SDS011;6932;51.438;5.470;2022-08-24T00:43:03;13.97;;;10.20;;
13720;SDS011;6932;51.438;5.470;2022-08-24T00:45:36;12.70;;;9.43;;
13720;SDS011;6932;51.438;5.470;2022-08-24T00:48:24;13.67;;;11.33;;
13720;SDS011;6932;51.438;5.470;2022-08-24T00:50:57;16.77;;;12.73;;
13720;SDS011;6932;51.438;5.470;2022-08-24T00:53:42;14.90;;;12.70;;
13720;SDS011;6932;51.438;5.470;2022-08-24T00:56:16;14.87;;;12.23;;
13720;SDS011;6932;51.438;5.470;2022-08-24T00:58:54;13.63;;;11.57;;
13720;SDS011;6932;51.438;5.470;2022-08-24T01:01:29;14.57;;;11.80;;
13720;SDS011;6932;51.438;5.470;2022-08-24T01:03:58;15.30;;;12.90;;
13720;SDS011;6932;51.438;5.470;2022-08-24T01:06:24;15.43;;;13.30;;
13720;SDS011;6932;51.438;5.470;2022-08-24T01:08:51;16.40;;;12.83;;
13720;SDS011;6932;51.438;5.470;2022-08-24T01:11:18;18.17;;;13.27;;
13720;SDS011;6932;51.438;5.470;2022-08-24T01:13:47;18.60;;;13.50;;
13720;SDS011;6932;51.438;5.470;2022-08-24T01:16:17;16.93;;;13.50;;
13720;SDS011;6932;51.438;5.470;2022-08-24T01:19:06;16.00;;;13.00;;
13720;SDS011;6932;51.438;5.470;2022-08-24T01:24:56;15.73;;;13.43;;
13720;SDS011;6932;51.438;5.470;2022-08-24T01:27:23;17.27;;;13.70;;
13720;SDS011;6932;51.438;5.470;2022-08-24T01:29:49;16.83;;;13.50;;
13720;SDS011;6932;51.438;5.470;2022-08-24T01:32:17;17.30;;;13.93;;
13720;SDS011;6932;51.438;5.470;2022-08-24T01:34:47;18.13;;;14.33;;
13720;SDS011;6932;51.438;5.470;2022-08-24T01:37:13;17.20;;;13.67;;
13720;SDS011;6932;51.438;5.470;2022-08-24T01:39:41;17.03;;;13.73;;
13720;SDS011;6932;51.438;5.470;2022-08-24T01:42:10;16.93;;;14.03;;
13720;SDS011;6932;51.438;5.470;2022-08-24T01:44:38;17.67;;;13.57;;
13720;SDS011;6932;51.438;5.470;2022-08-24T01:47:08;16.20;;;13.40;;
13720;SDS011;6932;51.438;5.470;2022-08-24T01:49:38;18.30;;;15.20;;
13720;SDS011;6932;51.438;5.470;2022-08-24T01:52:13;17.50;;;14.37;;
13720;SDS011;6932;51.438;5.470;2022-08-24T01:54:45;16.83;;;13.83;;
13720;SDS011;6932;51.438;5.470;2022-08-24T01:57:11;18.80;;;14.17;;
13720;SDS011;6932;51.438;5.470;2022-08-24T01:59:38;17.10;;;13.97;;
13720;SDS011;6932;51.438;5.470;2022-08-24T02:02:15;17.67;;;15.30;;
13720;SDS011;6932;51.438;5.470;2022-08-24T02:04:53;17.47;;;14.40;;
13720;SDS011;6932;51.438;5.470;2022-08-24T02:07:20;17.77;;;14.57;;
13720;SDS011;6932;51.438;5.470;2022-08-24T02:09:46;17.23;;;14.10;;
13720;SDS011;6932;51.438;5.470;2022-08-24T02:12:12;17.00;;;14.33;;
13720;SDS011;6932;51.438;5.470;2022-08-24T02:14:39;17.67;;;14.37;;
13720;SDS011;6932;51.438;5.470;2022-08-24T02:17:05;22.07;;;15.23;;
13720;SDS011;6932;51.438;5.470;2022-08-24T02:19:32;17.63;;;14.33;;
13720;SDS011;6932;51.438;5.470;2022-08-24T02:21:59;17.73;;;14.67;;
13720;SDS011;6932;51.438;5.470;2022-08-24T02:24:26;19.37;;;14.57;;
13720;SDS011;6932;51.438;5.470;2022-08-24T02:26:53;19.10;;;14.80;;
13720;SDS011;6932;51.438;5.470;2022-08-24T02:29:19;18.57;;;14.40;;
13720;SDS011;6932;51.438;5.470;2022-08-24T02:31:45;18.13;;;15.17;;
13720;SDS011;6932;51.438;5.470;2022-08-24T02:34:11;19.90;;;14.17;;
13720;SDS011;6932;51.438;5.470;2022-08-24T02:36:38;17.50;;;14.43;;
13720;SDS011;6932;51.438;5.470;2022-08-24T02:39:04;18.27;;;15.43;;
13720;SDS011;6932;51.438;5.470;2022-08-24T02:41:32;16.90;;;14.10;;
13720;SDS011;6932;51.438;5.470;2022-08-24T02:43:59;18.57;;;14.97;;
13720;SDS011;6932;51.438;5.470;2022-08-24T02:46:27;17.87;;;15.00;;
13720;SDS011;6932;51.438;5.470;2022-08-24T02:48:55;18.03;;;14.50;;
13720;SDS011;6932;51.438;5.470;2022-08-24T02:51:32;19.23;;;15.67;;
13720;SDS011;6932;51.438;5.470;2022-08-24T02:53:58;19.00;;;15.27;;
13720;SDS011;6932;51.438;5.470;2022-08-24T02:56:27;18.10;;;15.03;;
13720;SDS011;6932;51.438;5.470;2022-08-24T02:58:57;18.67;;;15.37;;
13720;SDS011;6932;51.438;5.470;2022-08-24T03:01:24;19.00;;;15.30;;
13720;SDS011;6932;51.438;5.470;2022-08-24T03:03:51;19.13;;;16.20;;
13720;SDS011;6932;51.438;5.470;2022-08-24T03:06:17;18.87;;;15.67;;
13720;SDS011;6932;51.438;5.470;2022-08-24T03:08:44;22.00;;;16.80;;
13720;SDS011;6932;51.438;5.470;2022-08-24T03:11:10;20.53;;;15.93;;
13720;SDS011;6932;51.438;5.470;2022-08-24T03:13:38;18.03;;;14.80;;
13720;SDS011;6932;51.438;5.470;2022-08-24T03:16:04;17.73;;;14.93;;
13720;SDS011;6932;51.438;5.470;2022-08-24T03:18:32;17.67;;;14.63;;
13720;SDS011;6932;51.438;5.470;2022-08-24T03:20:59;19.30;;;15.50;;
13720;SDS011;6932;51.438;5.470;2022-08-24T03:23:27;20.10;;;15.27;;
13720;SDS011;6932;51.438;5.470;2022-08-24T03:25:53;19.60;;;15.93;;
13720;SDS011;6932;51.438;5.470;2022-08-24T03:28:20;17.63;;;15.17;;
13720;SDS011;6932;51.438;5.470;2022-08-24T03:30:47;17.93;;;15.63;;
13720;SDS011;6932;51.438;5.470;2022-08-24T03:33:14;19.47;;;15.43;;
13720;SDS011;6932;51.438;5.470;2022-08-24T03:35:40;18.40;;;15.30;;
13720;SDS011;6932;51.438;5.470;2022-08-24T03:38:07;21.27;;;16.67;;
13720;SDS011;6932;51.438;5.470;2022-08-24T03:40:32;20.20;;;16.13;;
13720;SDS011;6932;51.438;5.470;2022-08-24T03:42:59;19.73;;;16.30;;
13720;SDS011;6932;51.438;5.470;2022-08-24T03:45:28;19.70;;;17.07;;
13720;SDS011;6932;51.438;5.470;2022-08-24T03:47:54;20.20;;;16.93;;
13720;SDS011;6932;51.438;5.470;2022-08-24T03:50:21;18.77;;;15.60;;
13720;SDS011;6932;51.438;5.470;2022-08-24T03:52:48;20.30;;;16.17;;
13720;SDS011;6932;51.438;5.470;2022-08-24T03:55:16;19.60;;;16.83;;
13720;SDS011;6932;51.438;5.470;2022-08-24T03:57:42;19.20;;;16.03;;
13720;SDS011;6932;51.438;5.470;2022-08-24T04:00:09;18.63;;;14.90;;
13720;SDS011;6932;51.438;5.470;2022-08-24T04:02:36;15.87;;;13.50;;
13720;SDS011;6932;51.438;5.470;2022-08-24T04:05:03;16.20;;;13.20;;
13720;SDS011;6932;51.438;5.470;2022-08-24T04:07:31;16.23;;;12.57;;
13720;SDS011;6932;51.438;5.470;2022-08-24T04:09:57;15.90;;;13.03;;
13720;SDS011;6932;51.438;5.470;2022-08-24T04:12:24;16.73;;;13.17;;
13720;SDS011;6932;51.438;5.470;2022-08-24T04:14:51;15.87;;;13.00;;
13720;SDS011;6932;51.438;5.470;2022-08-24T04:17:19;16.20;;;12.73;;
13720;SDS011;6932;51.438;5.470;2022-08-24T04:19:45;16.37;;;13.67;;
13720;SDS011;6932;51.438;5.470;2022-08-24T04:22:26;16.90;;;13.47;;
13720;SDS011;6932;51.438;5.470;2022-08-24T04:24:55;18.50;;;15.57;;
13720;SDS011;6932;51.438;5.470;2022-08-24T04:27:22;17.03;;;14.50;;
13720;SDS011;6932;51.438;5.470;2022-08-24T04:29:48;19.13;;;14.33;;
13720;SDS011;6932;51.438;5.470;2022-08-24T04:32:13;17.57;;;15.10;;
13720;SDS011;6932;51.438;5.470;2022-08-24T04:34:40;19.67;;;14.37;;
13720;SDS011;6932;51.438;5.470;2022-08-24T04:37:07;20.30;;;14.97;;
13720;SDS011;6932;51.438;5.470;2022-08-24T04:39:33;18.83;;;15.10;;
13720;SDS011;6932;51.438;5.470;2022-08-24T04:41:59;19.63;;;16.63;;
13720;SDS011;6932;51.438;5.470;2022-08-24T04:44:25;19.33;;;16.30;;
13720;SDS011;6932;51.438;5.470;2022-08-24T04:46:51;20.30;;;17.27;;
13720;SDS011;6932;51.438;5.470;2022-08-24T04:49:16;18.70;;;16.20;;
13720;SDS011;6932;51.438;5.470;2022-08-24T04:51:42;19.63;;;16.20;;
13720;SDS011;6932;51.438;5.470;2022-08-24T04:54:08;20.80;;;16.57;;
13720;SDS011;6932;51.438;5.470;2022-08-24T04:56:34;21.67;;;17.37;;
13720;SDS011;6932;51.438;5.470;2022-08-24T04:59:00;21.43;;;17.97;;
13720;SDS011;6932;51.438;5.470;2022-08-24T05:01:29;18.83;;;16.00;;
13720;SDS011;6932;51.438;5.470;2022-08-24T05:03:59;19.47;;;17.33;;
13720;SDS011;6932;51.438;5.470;2022-08-24T05:06:26;18.93;;;16.10;;
13720;SDS011;6932;51.438;5.470;2022-08-24T05:08:54;19.13;;;16.07;;
13720;SDS011;6932;51.438;5.470;2022-08-24T05:11:21;19.63;;;16.73;;
13720;SDS011;6932;51.438;5.470;2022-08-24T05:13:50;18.87;;;16.10;;
13720;SDS011;6932;51.438;5.470;2022-08-24T05:16:17;20.67;;;17.43;;
13720;SDS011;6932;51.438;5.470;2022-08-24T05:18:44;21.50;;;17.90;;
13720;SDS011;6932;51.438;5.470;2022-08-24T05:21:13;20.60;;;17.70;;
13720;SDS011;6932;51.438;5.470;2022-08-24T05:23:42;20.23;;;17.27;;
13720;SDS011;6932;51.438;5.470;2022-08-24T05:26:10;20.53;;;17.53;;
13720;SDS011;6932;51.438;5.470;2022-08-24T05:28:49;20.80;;;16.60;;
13720;SDS011;6932;51.438;5.470;2022-08-24T05:31:21;20.33;;;17.67;;
13720;SDS011;6932;51.438;5.470;2022-08-24T05:33:49;18.27;;;15.93;;
13720;SDS011;6932;51.438;5.470;2022-08-24T05:36:20;19.10;;;16.50;;
13720;SDS011;6932;51.438;5.470;2022-08-24T05:38:54;19.53;;;16.17;;
13720;SDS011;6932;51.438;5.470;2022-08-24T05:41:22;19.73;;;17.00;;
13720;SDS011;6932;51.438;5.470;2022-08-24T05:43:49;20.87;;;17.27;;
13720;SDS011;6932;51.438;5.470;2022-08-24T05:46:16;19.60;;;16.23;;
13720;SDS011;6932;51.438;5.470;2022-08-24T05:48:42;20.03;;;17.13;;
13720;SDS011;6932;51.438;5.470;2022-08-24T05:51:08;18.90;;;16.57;;
13720;SDS011;6932;51.438;5.470;2022-08-24T05:53:35;21.60;;;16.97;;
13720;SDS011;6932;51.438;5.470;2022-08-24T05:56:03;18.98;;;16.00;;
13720;SDS011;6932;51.438;5.470;2022-08-24T05:58:33;18.80;;;16.40;;
13720;SDS011;6932;51.438;5.470;2022-08-24T06:01:04;17.83;;;14.93;;
13720;SDS011;6932;51.438;5.470;2022-08-24T06:03:36;19.20;;;15.20;;
13720;SDS011;6932;51.438;5.470;2022-08-24T06:06:03;19.05;;;14.88;;
13720;SDS011;6932;51.438;5.470;2022-08-24T06:08:31;17.38;;;14.50;;
13720;SDS011;6932;51.438;5.470;2022-08-24T06:11:05;19.73;;;16.20;;
13720;SDS011;6932;51.438;5.470;2022-08-24T06:13:31;19.10;;;15.38;;
13720;SDS011;6932;51.438;5.470;2022-08-24T06:16:08;17.25;;;14.13;;
13720;SDS011;6932;51.438;5.470;2022-08-24T06:18:37;16.52;;;14.13;;
13720;SDS011;6932;51.438;5.470;2022-08-24T06:21:05;16.70;;;14.07;;
13720;SDS011;6932;51.438;5.470;2022-08-24T06:23:34;17.30;;;14.35;;
13720;SDS011;6932;51.438;5.470;2022-08-24T06:26:00;16.92;;;13.90;;
13720;SDS011;6932;51.438;5.470;2022-08-24T06:28:48;16.73;;;13.00;;
13720;SDS011;6932;51.438;5.470;2022-08-24T06:31:17;17.50;;;14.07;;
13720;SDS011;6932;51.438;5.470;2022-08-24T06:33:44;17.90;;;14.23;;
13720;SDS011;6932;51.438;5.470;2022-08-24T06:36:10;16.38;;;13.45;;
13720;SDS011;6932;51.438;5.470;2022-08-24T06:38:36;18.67;;;14.02;;
13720;SDS011;6932;51.438;5.470;2022-08-24T06:41:02;19.38;;;14.00;;
13720;SDS011;6932;51.438;5.470;2022-08-24T06:43:27;17.92;;;13.00;;
13720;SDS011;6932;51.438;5.470;2022-08-24T06:45:54;19.55;;;13.00;;
13720;SDS011;6932;51.438;5.470;2022-08-24T06:48:21;15.10;;;11.95;;
13720;SDS011;6932;51.438;5.470;2022-08-24T06:50:47;15.40;;;12.07;;
13720;SDS011;6932;51.438;5.470;2022-08-24T06:53:13;15.75;;;12.20;;
13720;SDS011;6932;51.438;5.470;2022-08-24T06:58:23;14.02;;;11.43;;
13720;SDS011;6932;51.438;5.470;2022-08-24T07:00:52;13.93;;;10.75;;
13720;SDS011;6932;51.438;5.470;2022-08-24T07:03:20;16.65;;;11.77;;
13720;SDS011;6932;51.438;5.470;2022-08-24T07:05:53;14.70;;;10.85;;
13720;SDS011;6932;51.438;5.470;2022-08-24T07:08:22;15.27;;;11.43;;
13720;SDS011;6932;51.438;5.470;2022-08-24T07:10:48;15.48;;;11.45;;
13720;SDS011;6932;51.438;5.470;2022-08-24T07:13:15;14.60;;;10.27;;
13720;SDS011;6932;51.438;5.470;2022-08-24T07:15:41;13.88;;;10.23;;
13720;SDS011;6932;51.438;5.470;2022-08-24T07:18:12;16.23;;;9.95;;
13720;SDS011;6932;51.438;5.470;2022-08-24T07:20:40;14.18;;;10.30;;
13720;SDS011;6932;51.438;5.470;2022-08-24T07:23:06;14.90;;;10.60;;
13720;SDS011;6932;51.438;5.470;2022-08-24T07:25:33;13.15;;;10.13;;
13720;SDS011;6932;51.438;5.470;2022-08-24T07:27:59;12.75;;;9.40;;
13720;SDS011;6932;51.438;5.470;2022-08-24T07:30:26;13.15;;;8.70;;
13720;SDS011;6932;51.438;5.470;2022-08-24T07:32:53;13.88;;;9.45;;
13720;SDS011;6932;51.438;5.470;2022-08-24T07:35:21;11.93;;;9.02;;
13720;SDS011;6932;51.438;5.470;2022-08-24T07:37:49;13.88;;;9.43;;
13720;SDS011;6932;51.438;5.470;2022-08-24T07:40:15;13.65;;;8.57;;
13720;SDS011;6932;51.438;5.470;2022-08-24T07:42:41;13.75;;;9.10;;
13720;SDS011;6932;51.438;5.470;2022-08-24T07:45:14;13.40;;;8.30;;
13720;SDS011;6932;51.438;5.470;2022-08-24T07:47:40;15.68;;;9.05;;
13720;SDS011;6932;51.438;5.470;2022-08-24T07:50:07;15.68;;;9.57;;
13720;SDS011;6932;51.438;5.470;2022-08-24T07:52:34;14.15;;;9.43;;
13720;SDS011;6932;51.438;5.470;2022-08-24T07:54:59;13.85;;;8.55;;
13720;SDS011;6932;51.438;5.470;2022-08-24T07:57:25;14.18;;;8.60;;
13720;SDS011;6932;51.438;5.470;2022-08-24T07:59:51;12.43;;;8.25;;
13720;SDS011;6932;51.438;5.470;2022-08-24T08:02:17;12.30;;;8.05;;
13720;SDS011;6932;51.438;5.470;2022-08-24T08:04:43;12.93;;;8.02;;
13720;SDS011;6932;51.438;5.470;2022-08-24T08:07:09;14.05;;;8.05;;
13720;SDS011;6932;51.438;5.470;2022-08-24T08:09:37;15.18;;;7.57;;
13720;SDS011;6932;51.438;5.470;2022-08-24T08:12:03;12.40;;;7.30;;
13720;SDS011;6932;51.438;5.470;2022-08-24T08:14:31;13.20;;;7.10;;
13720;SDS011;6932;51.438;5.470;2022-08-24T08:16:57;11.43;;;6.68;;
13720;SDS011;6932;51.438;5.470;2022-08-24T08:19:23;11.70;;;6.18;;
13720;SDS011;6932;51.438;5.470;2022-08-24T08:21:50;9.85;;;5.95;;
13720;SDS011;6932;51.438;5.470;2022-08-24T08:24:37;9.88;;;6.30;;
13720;SDS011;6932;51.438;5.470;2022-08-24T08:27:06;11.02;;;5.95;;
13720;SDS011;6932;51.438;5.470;2022-08-24T08:29:33;9.90;;;5.90;;
13720;SDS011;6932;51.438;5.470;2022-08-24T08:32:00;9.63;;;5.45;;
13720;SDS011;6932;51.438;5.470;2022-08-24T08:34:26;11.32;;;6.65;;
13720;SDS011;6932;51.438;5.470;2022-08-24T08:36:55;11.73;;;6.53;;
13720;SDS011;6932;51.438;5.470;2022-08-24T08:39:22;9.30;;;5.90;;
13720;SDS011;6932;51.438;5.470;2022-08-24T08:44:59;10.57;;;4.40;;
13720;SDS011;6932;51.438;5.470;2022-08-24T08:51:30;3.53;;;2.13;;
13720;SDS011;6932;51.438;5.470;2022-08-24T08:57:09;6.63;;;3.45;;
13720;SDS011;6932;51.438;5.470;2022-08-24T09:06:01;7.50;;;4.00;;
13720;SDS011;6932;51.438;5.470;2022-08-24T09:18:23;6.38;;;3.00;;
13720;SDS011;6932;51.438;5.470;2022-08-24T09:36:06;4.63;;;2.40;;
13720;SDS011;6932;51.438;5.470;2022-08-24T09:41:18;2.30;;;1.65;;
13720;SDS011;6932;51.438;5.470;2022-08-24T10:02:30;3.47;;;2.30;;
13720;SDS011;6932;51.438;5.470;2022-08-24T10:05:21;2.97;;;2.10;;
13720;SDS011;6932;51.438;5.470;2022-08-24T10:08:13;2.42;;;2.00;;
13720;SDS011;6932;51.438;5.470;2022-08-24T10:11:24;3.50;;;2.50;;
13720;SDS011;6932;51.438;5.470;2022-08-24T10:19:51;4.55;;;2.22;;
13720;SDS011;6932;51.438;5.470;2022-08-24T10:22:49;4.43;;;2.00;;
13720;SDS011;6932;51.438;5.470;2022-08-24T10:31:10;4.10;;;2.28;;
13720;SDS011;6932;51.438;5.470;2022-08-24T10:36:30;2.42;;;2.00;;
13720;SDS011;6932;51.438;5.470;2022-08-24T10:42:31;2.72;;;2.17;;
13720;SDS011;6932;51.438;5.470;2022-08-24T10:51:20;2.75;;;2.00;;
13720;SDS011;6932;51.438;5.470;2022-08-24T10:54:15;4.55;;;2.00;;
13720;SDS011;6932;51.438;5.470;2022-08-24T11:02:05;3.30;;;2.28;;
13720;SDS011;6932;51.438;5.470;2022-08-24T11:04:57;5.20;;;1.95;;
13720;SDS011;6932;51.438;5.470;2022-08-24T11:07:58;3.97;;;2.00;;
13720;SDS011;6932;51.438;5.470;2022-08-24T11:10:30;2.40;;;2.00;;
13720;SDS011;6932;51.438;5.470;2022-08-24T11:15:54;3.95;;;2.10;;
13720;SDS011;6932;51.438;5.470;2022-08-24T11:18:24;3.05;;;2.15;;
13720;SDS011;6932;51.438;5.470;2022-08-24T11:21:09;2.83;;;2.20;;
13720;SDS011;6932;51.438;5.470;2022-08-24T11:23:43;3.90;;;2.17;;
13720;SDS011;6932;51.438;5.470;2022-08-24T11:26:11;4.68;;;2.30;;
13720;SDS011;6932;51.438;5.470;2022-08-24T11:28:53;3.47;;;2.03;;
13720;SDS011;6932;51.438;5.470;2022-08-24T11:31:32;3.50;;;2.35;;
13720;SDS011;6932;51.438;5.470;2022-08-24T11:34:08;3.20;;;2.03;;
13720;SDS011;6932;51.438;5.470;2022-08-24T11:36:40;7.47;;;2.50;;
13720;SDS011;6932;51.438;5.470;2022-08-24T11:39:19;3.08;;;1.90;;
13720;SDS011;6932;51.438;5.470;2022-08-24T11:50:38;2.50;;;2.22;;
13720;SDS011;6932;51.438;5.470;2022-08-24T11:53:23;4.97;;;2.00;;
13720;SDS011;6932;51.438;5.470;2022-08-24T11:59:16;4.10;;;2.00;;
13720;SDS011;6932;51.438;5.470;2022-08-24T12:02:04;2.30;;;1.80;;
13720;SDS011;6932;51.438;5.470;2022-08-24T12:04:45;2.30;;;1.50;;
13720;SDS011;6932;51.438;5.470;2022-08-24T12:07:27;1.73;;;1.60;;
13720;SDS011;6932;51.438;5.470;2022-08-24T12:10:15;1.67;;;1.58;;
13720;SDS011;6932;51.438;5.470;2022-08-24T12:13:23;1.98;;;1.50;;
13720;SDS011;6932;51.438;5.470;2022-08-24T12:16:18;2.55;;;1.40;;
13720;SDS011;6932;51.438;5.470;2022-08-24T12:19:27;2.35;;;1.50;;
13720;SDS011;6932;51.438;5.470;2022-08-24T12:22:06;3.70;;;1.42;;
13720;SDS011;6932;51.438;5.470;2022-08-24T12:27:15;4.03;;;1.50;;
13720;SDS011;6932;51.438;5.470;2022-08-24T12:29:54;2.40;;;1.30;;
13720;SDS011;6932;51.438;5.470;2022-08-24T12:32:32;2.42;;;1.35;;
13720;SDS011;6932;51.438;5.470;2022-08-24T12:37:49;2.20;;;1.30;;
13720;SDS011;6932;51.438;5.470;2022-08-24T12:40:44;2.50;;;1.48;;
13720;SDS011;6932;51.438;5.470;2022-08-24T12:43:24;3.55;;;1.52;;
13720;SDS011;6932;51.438;5.470;2022-08-24T12:46:00;3.00;;;1.60;;
13720;SDS011;6932;51.438;5.470;2022-08-24T12:48:29;2.95;;;1.40;;
13720;SDS011;6932;51.438;5.470;2022-08-24T12:59:49;2.75;;;1.50;;
13720;SDS011;6932;51.438;5.470;2022-08-24T13:02:56;3.55;;;1.63;;
13720;SDS011;6932;51.438;5.470;2022-08-24T13:05:39;4.65;;;1.65;;
13720;SDS011;6932;51.438;5.470;2022-08-24T13:11:10;3.35;;;1.58;;
13720;SDS011;6932;51.438;5.470;2022-08-24T13:14:27;2.47;;;1.70;;
13720;SDS011;6932;51.438;5.470;2022-08-24T13:21:56;3.00;;;1.52;;
13720;SDS011;6932;51.438;5.470;2022-08-24T13:24:40;3.58;;;1.40;;
13720;SDS011;6932;51.438;5.470;2022-08-24T13:29:36;5.35;;;2.05;;
13720;SDS011;6932;51.438;5.470;2022-08-24T13:32:48;2.80;;;1.45;;
13720;SDS011;6932;51.438;5.470;2022-08-24T13:46:17;3.20;;;1.58;;
13720;SDS011;6932;51.438;5.470;2022-08-24T13:51:49;3.33;;;1.80;;
13720;SDS011;6932;51.438;5.470;2022-08-24T13:54:31;2.17;;;1.50;;
13720;SDS011;6932;51.438;5.470;2022-08-24T13:57:22;3.90;;;1.80;;
13720;SDS011;6932;51.438;5.470;2022-08-24T14:00:37;3.15;;;1.80;;
13720;SDS011;6932;51.438;5.470;2022-08-24T14:05:54;2.22;;;1.63;;
13720;SDS011;6932;51.438;5.470;2022-08-24T14:23:31;2.30;;;1.60;;
13720;SDS011;6932;51.438;5.470;2022-08-24T14:37:01;2.90;;;1.75;;
13720;SDS011;6932;51.438;5.470;2022-08-24T14:56:52;2.95;;;1.88;;
13720;SDS011;6932;51.438;5.470;2022-08-24T15:02:54;5.10;;;1.80;;
13720;SDS011;6932;51.438;5.470;2022-08-24T15:06:06;3.28;;;1.67;;
13720;SDS011;6932;51.438;5.470;2022-08-24T15:09:34;5.20;;;1.63;;
13720;SDS011;6932;51.438;5.470;2022-08-24T15:12:10;1.92;;;1.55;;
13720;SDS011;6932;51.438;5.470;2022-08-24T15:17:38;2.97;;;1.83;;
13720;SDS011;6932;51.438;5.470;2022-08-24T15:23:13;3.55;;;1.80;;
13720;SDS011;6932;51.438;5.470;2022-08-24T15:29:26;2.85;;;1.70;;
13720;SDS011;6932;51.438;5.470;2022-08-24T15:32:01;3.72;;;1.52;;
13720;SDS011;6932;51.438;5.470;2022-08-24T15:40:02;3.25;;;1.58;;
13720;SDS011;6932;51.438;5.470;2022-08-24T15:42:41;2.78;;;1.60;;
13720;SDS011;6932;51.438;5.470;2022-08-24T15:45:07;4.00;;;1.80;;
13720;SDS011;6932;51.438;5.470;2022-08-24T15:47:35;2.70;;;1.80;;
13720;SDS011;6932;51.438;5.470;2022-08-24T15:50:06;4.15;;;1.90;;
13720;SDS011;6932;51.438;5.470;2022-08-24T15:52:57;4.13;;;1.80;;
13720;SDS011;6932;51.438;5.470;2022-08-24T16:00:51;2.85;;;1.92;;
13720;SDS011;6932;51.438;5.470;2022-08-24T16:03:52;4.00;;;2.00;;
13720;SDS011;6932;51.438;5.470;2022-08-24T16:14:25;4.13;;;2.00;;
13720;SDS011;6932;51.438;5.470;2022-08-24T16:20:07;5.43;;;1.88;;
13720;SDS011;6932;51.438;5.470;2022-08-24T16:22:54;2.92;;;1.88;;
13720;SDS011;6932;51.438;5.470;2022-08-24T16:25:35;3.20;;;1.90;;
13720;SDS011;6932;51.438;5.470;2022-08-24T16:28:12;3.60;;;1.70;;
13720;SDS011;6932;51.438;5.470;2022-08-24T16:31:00;5.07;;;2.15;;
13720;SDS011;6932;51.438;5.470;2022-08-24T16:33:45;4.57;;;2.58;;
13720;SDS011;6932;51.438;5.470;2022-08-24T16:36:13;96.90;;;86.05;;
13720;SDS011;6932;51.438;5.470;2022-08-24T16:38:46;41.58;;;24.42;;
13720;SDS011;6932;51.438;5.470;2022-08-24T16:41:16;16.73;;;7.97;;
13720;SDS011;6932;51.438;5.470;2022-08-24T16:43:45;6.15;;;3.00;;
13720;SDS011;6932;51.438;5.470;2022-08-24T16:46:16;3.70;;;1.75;;
13720;SDS011;6932;51.438;5.470;2022-08-24T16:48:45;4.05;;;1.70;;
13720;SDS011;6932;51.438;5.470;2022-08-24T16:51:11;4.03;;;1.85;;
13720;SDS011;6932;51.438;5.470;2022-08-24T16:53:36;3.55;;;1.90;;
13720;SDS011;6932;51.438;5.470;2022-08-24T16:56:02;3.20;;;1.85;;
13720;SDS011;6932;51.438;5.470;2022-08-24T16:58:30;3.35;;;1.90;;
13720;SDS011;6932;51.438;5.470;2022-08-24T17:00:58;3.05;;;1.67;;
13720;SDS011;6932;51.438;5.470;2022-08-24T17:03:25;3.17;;;1.80;;
13720;SDS011;6932;51.438;5.470;2022-08-24T17:05:51;1.98;;;1.70;;
13720;SDS011;6932;51.438;5.470;2022-08-24T17:08:19;3.15;;;1.80;;
13720;SDS011;6932;51.438;5.470;2022-08-24T17:10:45;5.57;;;1.90;;
13720;SDS011;6932;51.438;5.470;2022-08-24T17:13:11;2.42;;;1.60;;
13720;SDS011;6932;51.438;5.470;2022-08-24T17:15:37;3.17;;;1.70;;
13720;SDS011;6932;51.438;5.470;2022-08-24T17:18:03;2.60;;;1.80;;
13720;SDS011;6932;51.438;5.470;2022-08-24T17:20:34;2.75;;;1.80;;
13720;SDS011;6932;51.438;5.470;2022-08-24T17:23:00;5.05;;;1.65;;
13720;SDS011;6932;51.438;5.470;2022-08-24T17:25:26;3.03;;;1.90;;
13720;SDS011;6932;51.438;5.470;2022-08-24T17:27:54;3.28;;;1.90;;
13720;SDS011;6932;51.438;5.470;2022-08-24T17:30:21;2.78;;;1.88;;
13720;SDS011;6932;51.438;5.470;2022-08-24T17:32:49;2.28;;;1.80;;
13720;SDS011;6932;51.438;5.470;2022-08-24T17:35:16;2.85;;;1.77;;
13720;SDS011;6932;51.438;5.470;2022-08-24T17:37:45;4.40;;;2.00;;
13720;SDS011;6932;51.438;5.470;2022-08-24T17:40:14;5.03;;;2.00;;
13720;SDS011;6932;51.438;5.470;2022-08-24T17:42:43;3.33;;;1.98;;
13720;SDS011;6932;51.438;5.470;2022-08-24T17:45:09;3.10;;;1.85;;
13720;SDS011;6932;51.438;5.470;2022-08-24T17:47:36;3.92;;;1.90;;
13720;SDS011;6932;51.438;5.470;2022-08-24T17:50:04;15.98;;;3.40;;
13720;SDS011;6932;51.438;5.470;2022-08-24T17:52:34;7.75;;;3.38;;
13720;SDS011;6932;51.438;5.470;2022-08-24T17:55:06;5.63;;;3.42;;
13720;SDS011;6932;51.438;5.470;2022-08-24T17:57:35;5.03;;;2.35;;
13720;SDS011;6932;51.438;5.470;2022-08-24T18:00:03;3.70;;;2.60;;
13720;SDS011;6932;51.438;5.470;2022-08-24T18:02:33;5.30;;;2.30;;
13720;SDS011;6932;51.438;5.470;2022-08-24T18:04:58;4.55;;;2.13;;
13720;SDS011;6932;51.438;5.470;2022-08-24T18:07:25;3.92;;;2.25;;
13720;SDS011;6932;51.438;5.470;2022-08-24T18:09:54;2.75;;;2.10;;
13720;SDS011;6932;51.438;5.470;2022-08-24T18:12:24;4.80;;;2.10;;
13720;SDS011;6932;51.438;5.470;2022-08-24T18:14:51;2.50;;;2.00;;
13720;SDS011;6932;51.438;5.470;2022-08-24T18:17:22;3.72;;;1.90;;
13720;SDS011;6932;51.438;5.470;2022-08-24T18:19:58;3.17;;;1.88;;
13720;SDS011;6932;51.438;5.470;2022-08-24T18:22:24;2.92;;;2.15;;
13720;SDS011;6932;51.438;5.470;2022-08-24T18:24:49;3.92;;;2.08;;
13720;SDS011;6932;51.438;5.470;2022-08-24T18:27:20;2.90;;;1.98;;
13720;SDS011;6932;51.438;5.470;2022-08-24T18:29:52;2.42;;;1.90;;
13720;SDS011;6932;51.438;5.470;2022-08-24T18:32:22;3.63;;;2.20;;
13720;SDS011;6932;51.438;5.470;2022-08-24T18:34:47;5.72;;;2.28;;
13720;SDS011;6932;51.438;5.470;2022-08-24T18:37:13;3.00;;;2.00;;
13720;SDS011;6932;51.438;5.470;2022-08-24T18:39:39;4.13;;;2.10;;
13720;SDS011;6932;51.438;5.470;2022-08-24T18:42:05;3.60;;;2.00;;
13720;SDS011;6932;51.438;5.470;2022-08-24T18:44:33;3.15;;;2.20;;
13720;SDS011;6932;51.438;5.470;2022-08-24T18:47:01;3.58;;;2.10;;
13720;SDS011;6932;51.438;5.470;2022-08-24T18:49:27;4.07;;;2.10;;
13720;SDS011;6932;51.438;5.470;2022-08-24T18:51:53;2.65;;;2.10;;
13720;SDS011;6932;51.438;5.470;2022-08-24T18:54:19;2.60;;;2.00;;
13720;SDS011;6932;51.438;5.470;2022-08-24T18:56:49;2.85;;;2.10;;
13720;SDS011;6932;51.438;5.470;2022-08-24T18:59:17;2.83;;;2.20;;
13720;SDS011;6932;51.438;5.470;2022-08-24T19:01:45;4.10;;;2.13;;
13720;SDS011;6932;51.438;5.470;2022-08-24T19:04:43;3.30;;;2.17;;
13720;SDS011;6932;51.438;5.470;2022-08-24T19:07:11;3.42;;;1.90;;